Time;durP1;ratioP1;P1;durP2;ratioP2;P2;SDS_P1;SDS_P2;PMS_P1;PMS_P2;Temp;Humidity;BMP_temperature;BMP_pressure;BME280_temperature;BME280_humidity;BME280_pressure;Samples;Min_cycle;Max_cycle;Signal;HPM_P1;HPM_P2
2023/09/10 00:02:38;;;;;;;10.75;9.65;;;;;;;25.83;48.85;101029.75;2254614;77;51467;-73
2023/09/10 00:05:40;;;;;;;11.80;10.20;;;;;;;25.82;48.86;101028.09;2206535;79;50246;-74
2023/09/10 00:08:43;;;;;;;12.53;10.45;;;;;;;25.82;48.84;101029.45;2253511;78;50653;-73
2023/09/10 00:11:45;;;;;;;11.97;10.48;;;;;;;25.82;48.88;101028.09;2228865;79;52607;-73
2023/09/10 00:14:47;;;;;;;11.48;10.18;;;;;;;25.82;48.85;101030.81;2228790;79;50680;-73
2023/09/10 00:17:51;;;;;;;12.23;10.25;;;;;;;25.82;48.86;101033.52;2253617;78;50592;-73
2023/09/10 00:20:53;;;;;;;12.45;10.08;;;;;;;25.81;48.88;101026.42;2227416;78;50302;-72
2023/09/10 00:23:56;;;;;;;12.20;10.23;;;;;;;25.81;48.86;101031.02;2267498;78;50281;-73
2023/09/10 00:26:58;;;;;;;12.43;10.18;;;;;;;25.81;48.87;101028.31;2222605;78;50273;-72
2023/09/10 00:30:00;;;;;;;12.70;10.63;;;;;;;25.80;48.87;101026.13;2267677;78;51524;-72
2023/09/10 00:33:02;;;;;;;11.55;10.10;;;;;;;25.79;48.89;101016.34;2271471;78;51438;-73
2023/09/10 00:36:05;;;;;;;12.55;10.68;;;;;;;25.79;48.90;101020.42;2199012;78;52476;-74
2023/09/10 00:39:07;;;;;;;10.75;9.65;;;;;;;25.79;48.88;101017.70;2271685;78;51438;-73
2023/09/10 00:42:09;;;;;;;12.45;10.45;;;;;;;25.78;48.89;101018.73;2267532;78;50637;-74
2023/09/10 00:45:12;;;;;;;11.03;9.73;;;;;;;25.78;48.87;101017.91;2245186;78;52650;-73
2023/09/10 00:48:14;;;;;;;12.03;10.40;;;;;;;25.78;48.88;101017.38;2264078;78;51560;-73
2023/09/10 00:51:16;;;;;;;12.93;10.50;;;;;;;25.77;48.89;101010.31;2248683;78;50274;-73
2023/09/10 00:54:18;;;;;;;11.48;10.28;;;;;;;25.77;48.91;101009.49;2239979;79;50262;-73
2023/09/10 00:57:21;;;;;;;12.58;10.32;;;;;;;25.77;48.88;101010.84;2240137;79;50621;-73
2023/09/10 01:00:23;;;;;;;13.45;10.40;;;;;;;25.77;48.90;101011.67;2253446;78;50315;-74
2023/09/10 01:03:26;;;;;;;11.78;10.45;;;;;;;25.77;48.89;101013.03;2258480;78;51456;-73
2023/09/10 01:06:28;;;;;;;10.85;9.70;;;;;;;25.77;48.90;101015.73;2260696;78;51597;-73
2023/09/10 01:09:30;;;;;;;11.63;9.73;;;;;;;25.76;48.89;101016.77;2239892;78;52154;-73
2023/09/10 01:12:50;;;;;;;11.75;10.23;;;;;;;25.76;48.93;101017.30;2260475;78;50342;-73
2023/09/10 01:15:56;;;;;;;10.93;9.73;;;;;;;25.75;48.90;101024.61;2260821;78;52346;-74
2023/09/10 01:19:01;;;;;;;11.63;10.43;;;;;;;25.75;48.93;101021.91;2242433;78;51545;-74
2023/09/10 01:22:28;;;;;;;11.08;9.95;;;;;;;25.75;48.92;101022.44;2255390;78;51504;-74
2023/09/10 01:25:32;;;;;;;11.55;10.32;;;;;;;25.75;48.93;101019.72;2260322;78;50788;-73
2023/09/10 01:28:35;;;;;;;11.03;9.87;;;;;;;25.73;48.94;101025.35;2240187;78;51242;-74
2023/09/10 01:31:37;;;;;;;11.35;10.25;;;;;;;25.74;48.94;101024.32;2264809;78;50834;-73
2023/09/10 01:34:45;;;;;;;11.30;9.90;;;;;;;25.73;48.93;101031.30;2260490;78;51549;-74
2023/09/10 01:37:59;;;;;;;11.63;10.15;;;;;;;25.73;48.95;101023.17;2260236;78;50321;-72
2023/09/10 01:41:07;;;;;;;11.83;10.18;;;;;;;25.73;48.96;101021.81;2260296;78;51575;-72
2023/09/10 01:44:09;;;;;;;11.40;10.03;;;;;;;25.72;48.96;101025.06;2260386;78;50902;-72
2023/09/10 01:47:11;;;;;;;11.83;10.35;;;;;;;25.72;49.00;101035.91;2260824;78;50274;-74
2023/09/10 01:50:14;;;;;;;11.15;9.98;;;;;;;25.73;48.97;101040.80;2269264;78;50713;-74
2023/09/10 01:53:16;;;;;;;11.05;9.83;;;;;;;25.71;49.01;101028.80;2265422;78;49665;-72
2023/09/10 01:56:19;;;;;;;12.03;10.10;;;;;;;25.71;49.00;101034.22;2260868;78;50065;-73
2023/09/10 01:59:21;;;;;;;11.18;9.75;;;;;;;25.71;49.01;101035.58;2224875;78;51528;-73
2023/09/10 02:02:23;;;;;;;13.43;9.78;;;;;;;25.71;49.04;101038.82;2223709;78;50364;-72
2023/09/10 02:05:25;;;;;;;10.68;9.58;;;;;;;25.71;48.99;101042.35;2260449;78;50282;-72
2023/09/10 02:08:27;;;;;;;11.57;10.28;;;;;;;25.70;49.00;101043.42;2239748;78;51716;-72
2023/09/10 02:11:30;;;;;;;11.25;9.60;;;;;;;25.70;49.01;101040.70;2239854;78;51638;-72
2023/09/10 02:14:32;;;;;;;10.72;9.63;;;;;;;25.70;48.99;101038.53;2260303;78;51494;-73
2023/09/10 02:17:34;;;;;;;11.50;10.30;;;;;;;25.70;49.01;101040.70;2239694;78;51549;-73
2023/09/10 02:20:37;;;;;;;11.35;10.23;;;;;;;25.69;49.00;101037.70;2214406;78;50207;-73
2023/09/10 02:23:42;;;;;;;11.00;9.73;;;;;;;25.70;49.01;101041.23;2238625;79;51517;-73
2023/09/10 02:26:43;;;;;;;11.10;9.93;;;;;;;25.68;48.99;101034.67;2241971;79;22508;-73
2023/09/10 02:29:45;;;;;;;10.95;9.85;;;;;;;25.69;48.99;101034.14;2194982;79;51467;-72
2023/09/10 02:32:48;;;;;;;11.00;9.45;;;;;;;25.68;49.02;101029.25;2217727;79;52375;-72
2023/09/10 02:35:50;;;;;;;10.85;9.70;;;;;;;25.68;49.02;101035.20;2194524;79;52109;-72
2023/09/10 02:38:52;;;;;;;11.33;10.13;;;;;;;25.67;49.03;101033.02;2219006;79;51465;-72
2023/09/10 02:41:54;;;;;;;11.18;10.08;;;;;;;25.66;49.02;101029.99;2194011;79;51249;-72
2023/09/10 02:44:58;;;;;;;11.38;10.10;;;;;;;25.67;49.00;101032.20;2218729;79;50640;-72
2023/09/10 02:48:00;;;;;;;11.22;9.58;;;;;;;25.66;49.03;101021.86;2244226;78;51572;-73
2023/09/10 02:51:03;;;;;;;11.33;10.13;;;;;;;25.66;48.98;101038.13;2232342;78;49980;-73
2023/09/10 02:54:05;;;;;;;10.70;9.60;;;;;;;25.66;49.00;101039.48;2194823;79;50646;-73
2023/09/10 02:57:07;;;;;;;11.53;10.32;;;;;;;25.65;49.03;101043.25;2218168;79;52606;-73
2023/09/10 03:00:11;;;;;;;11.73;10.35;;;;;;;25.66;48.95;101044.08;2195102;79;50269;-74
2023/09/10 03:03:13;;;;;;;11.40;10.23;;;;;;;25.65;49.01;101047.31;2242939;79;50287;-72
2023/09/10 03:06:15;;;;;;;11.73;10.35;;;;;;;25.65;48.98;101044.61;2217319;79;49615;-74
2023/09/10 03:09:17;;;;;;;11.40;9.85;;;;;;;25.66;48.96;101042.19;2241383;79;50613;-73
2023/09/10 03:12:22;;;;;;;11.20;10.03;;;;;;;25.65;48.97;101039.19;2242968;79;51469;-73
2023/09/10 03:15:24;;;;;;;11.13;9.97;;;;;;;25.63;48.97;101032.62;2219630;79;50461;-73
2023/09/10 03:18:26;;;;;;;10.82;9.73;;;;;;;25.64;49.02;101032.12;2198837;78;50526;-73
2023/09/10 03:21:29;;;;;;;11.65;10.23;;;;;;;25.64;48.97;101033.47;2238330;78;52513;-72
2023/09/10 03:24:36;;;;;;;10.88;9.58;;;;;;;25.64;48.99;101036.19;2239541;78;50865;-73
2023/09/10 03:27:38;;;;;;;11.18;10.00;;;;;;;25.63;48.96;101032.62;2260332;78;50480;-71
2023/09/10 03:30:40;;;;;;;11.73;9.53;;;;;;;25.63;48.96;101031.80;2239729;78;52958;-73
2023/09/10 03:33:43;;;;;;;10.80;9.70;;;;;;;25.61;48.97;101030.67;2214956;78;51252;-73
2023/09/10 03:36:45;;;;;;;11.65;9.90;;;;;;;25.61;48.97;101029.33;2215352;78;50683;-73
2023/09/10 03:39:47;;;;;;;11.60;9.95;;;;;;;25.61;48.97;101032.03;2215715;78;51428;-73
2023/09/10 03:42:49;;;;;;;11.15;9.98;;;;;;;25.62;48.97;101027.44;2214723;78;51507;-73
2023/09/10 03:45:52;;;;;;;11.05;9.95;;;;;;;25.62;48.94;101026.08;2215361;78;51423;-73
2023/09/10 03:48:54;;;;;;;11.68;10.40;;;;;;;25.61;48.97;101015.77;2193307;78;51436;-73
2023/09/10 03:51:58;;;;;;;11.08;9.50;;;;;;;25.61;48.93;101017.63;2248815;78;50371;-73
2023/09/10 03:55:00;;;;;;;10.65;9.43;;;;;;;25.60;48.94;101014.62;2193615;79;50923;-73
2023/09/10 03:58:02;;;;;;;12.07;9.95;;;;;;;25.60;48.95;101015.98;2218637;79;50742;-73
2023/09/10 04:01:04;;;;;;;10.95;9.80;;;;;;;25.59;48.93;101009.73;2217477;79;50371;-74
2023/09/10 04:04:07;;;;;;;10.78;9.45;;;;;;;25.59;48.92;101012.98;2217165;79;50384;-73
2023/09/10 04:07:09;;;;;;;11.45;10.25;;;;;;;25.58;48.91;101009.41;2241054;79;51617;-73
2023/09/10 04:10:12;;;;;;;10.60;9.48;;;;;;;25.58;48.90;101009.95;2195017;79;52467;-73
2023/09/10 04:13:14;;;;;;;9.88;8.93;;;;;;;25.57;48.91;101013.19;2240932;79;50681;-74
2023/09/10 04:16:16;;;;;;;10.65;9.63;;;;;;;25.57;48.94;101018.61;2217316;79;51460;-74
2023/09/10 04:19:18;;;;;;;10.80;9.70;;;;;;;25.57;48.91;101021.32;2206901;78;52382;-74
2023/09/10 04:22:21;;;;;;;10.80;9.70;;;;;;;25.57;48.91;101017.78;2246769;78;50612;-74
2023/09/10 04:25:23;;;;;;;11.30;10.10;;;;;;;25.56;48.92;101022.38;2274267;78;51531;-73
2023/09/10 04:28:26;;;;;;;10.43;9.33;;;;;;;25.57;48.91;101027.27;2230766;78;50297;-74
2023/09/10 04:31:28;;;;;;;12.65;10.30;;;;;;;25.56;48.87;101026.45;2274569;78;50684;-73
2023/09/10 04:34:30;;;;;;;11.78;10.00;;;;;;;25.56;48.87;101029.66;2254059;78;52623;-74
2023/09/10 04:37:34;;;;;;;11.45;10.25;;;;;;;25.55;48.90;101026.66;2230804;78;51393;-74
2023/09/10 04:40:36;;;;;;;11.03;9.48;;;;;;;25.55;48.90;101033.42;2274344;78;51537;-74
2023/09/10 04:43:38;;;;;;;10.18;9.13;;;;;;;25.54;48.87;101027.72;2274112;78;50252;-73
2023/09/10 04:46:40;;;;;;;11.12;9.90;;;;;;;25.55;48.90;101036.14;2248801;78;50259;-74
2023/09/10 04:49:42;;;;;;;10.68;9.58;;;;;;;25.55;48.84;101037.49;2272269;78;50720;-73
2023/09/10 04:52:45;;;;;;;10.40;9.40;;;;;;;25.55;48.88;101044.27;2227081;78;50173;-73
2023/09/10 04:55:53;;;;;;;10.72;9.63;;;;;;;25.54;48.87;101041.27;2281710;77;50712;-73
2023/09/10 04:58:55;;;;;;;10.30;9.30;;;;;;;25.54;48.87;101048.04;2276403;77;51217;-73
2023/09/10 05:01:58;;;;;;;11.03;9.83;;;;;;;25.54;48.85;101045.33;2227133;78;50467;-73
2023/09/10 05:05:00;;;;;;;11.48;9.33;;;;;;;25.53;48.86;101045.83;2250259;78;50468;-74
2023/09/10 05:08:03;;;;;;;11.38;10.18;;;;;;;25.53;48.86;101051.78;2225689;78;51146;-73
2023/09/10 05:11:05;;;;;;;11.18;10.03;;;;;;;25.53;48.86;101055.84;2276318;77;51936;-73
2023/09/10 05:14:07;;;;;;;10.70;9.50;;;;;;;25.53;48.85;101057.20;2276084;77;50251;-73
2023/09/10 05:17:09;;;;;;;11.10;9.50;;;;;;;25.52;48.85;101061.80;2241659;78;50272;-72
2023/09/10 05:20:12;;;;;;;10.88;9.48;;;;;;;25.53;48.86;101059.91;2216228;78;50749;-72
2023/09/10 05:23:14;;;;;;;10.85;9.75;;;;;;;25.51;48.86;101066.92;2271199;78;49549;-72
2023/09/10 05:26:16;;;;;;;10.60;9.50;;;;;;;25.53;48.85;101057.20;2246635;78;50664;-73
2023/09/10 05:29:18;;;;;;;11.25;9.30;;;;;;;25.53;48.84;101061.27;2222445;78;52083;-73
2023/09/10 05:32:20;;;;;;;10.65;9.55;;;;;;;25.53;48.85;101058.55;2220884;78;52425;-72
2023/09/10 05:35:23;;;;;;;12.10;9.80;;;;;;;25.54;48.86;101058.88;2221923;78;50655;-72
2023/09/10 05:38:25;;;;;;;10.40;9.30;;;;;;;25.56;48.82;101057.61;2267306;78;50434;-73
2023/09/10 05:41:27;;;;;;;11.60;9.15;;;;;;;25.62;48.77;101058.61;2222510;78;52461;-73
2023/09/10 05:44:30;;;;;;;10.32;9.33;;;;;;;25.69;48.77;101062.59;2246144;78;51423;-74
2023/09/10 05:47:32;;;;;;;10.53;9.53;;;;;;;25.81;48.57;101064.37;2264161;78;51136;-74
2023/09/10 05:50:34;;;;;;;10.75;9.65;;;;;;;25.86;48.23;101063.75;2208493;78;50332;-74
2023/09/10 05:53:37;;;;;;;11.15;9.98;;;;;;;25.91;47.95;101064.44;2239560;78;50616;-74
2023/09/10 05:56:39;;;;;;;11.70;10.50;;;;;;;25.94;47.67;101058.57;2195721;78;49693;-73
2023/09/10 05:59:42;;;;;;;11.12;10.00;;;;;;;25.96;47.53;101064.61;2219065;78;50292;-73
2023/09/10 06:02:44;;;;;;;11.30;9.08;;;;;;;25.98;47.41;101058.44;2215574;78;50378;-73
2023/09/10 06:05:46;;;;;;;10.08;9.18;;;;;;;26.01;47.31;101064.77;2229677;79;50611;-73
2023/09/10 06:08:48;;;;;;;11.05;9.95;;;;;;;26.03;47.20;101067.56;2240143;79;50246;-73
2023/09/10 06:11:51;;;;;;;12.18;10.38;;;;;;;26.03;47.20;101067.56;2203657;79;50082;-73
2023/09/10 06:14:53;;;;;;;10.90;9.25;;;;;;;26.04;47.28;101063.78;2210132;79;51554;-73
2023/09/10 06:17:55;;;;;;;10.60;9.50;;;;;;;26.07;47.50;101062.52;2241689;78;51396;-72
2023/09/10 06:20:57;;;;;;;10.35;9.35;;;;;;;26.09;47.50;101067.72;2247709;78;51159;-73
2023/09/10 06:23:59;;;;;;;11.03;9.93;;;;;;;26.11;47.66;101070.52;2281969;78;50228;-73
2023/09/10 06:27:01;;;;;;;10.80;9.70;;;;;;;26.16;47.57;101063.89;2227563;78;50593;-73
2023/09/10 06:30:04;;;;;;;10.70;9.60;;;;;;;26.20;47.50;101073.26;2282246;78;51425;-73
2023/09/10 06:33:07;;;;;;;11.03;9.88;;;;;;;26.20;47.42;101065.12;2251984;78;51543;-72
2023/09/10 06:36:09;;;;;;;10.20;9.28;;;;;;;26.22;47.38;101070.30;2276716;77;52328;-72
2023/09/10 06:39:11;;;;;;;11.05;9.93;;;;;;;26.24;47.33;101071.73;2276788;78;50163;-72
2023/09/10 06:42:13;;;;;;;10.75;9.65;;;;;;;26.28;47.24;101076.17;2251819;78;50449;-73
2023/09/10 06:45:15;;;;;;;10.80;9.28;;;;;;;26.29;47.17;101071.89;2276701;77;51986;-72
2023/09/10 06:48:18;;;;;;;10.60;9.50;;;;;;;26.32;47.12;101077.93;2206083;79;50230;-73
2023/09/10 06:51:21;;;;;;;10.18;9.28;;;;;;;26.34;47.06;101082.08;2263330;78;51516;-73
2023/09/10 06:54:23;;;;;;;10.48;9.38;;;;;;;26.35;47.06;101072.05;2222251;78;51430;-74
2023/09/10 06:57:25;;;;;;;10.28;9.25;;;;;;;26.36;46.99;101073.70;2267759;78;51512;-74
2023/09/10 07:00:28;;;;;;;10.98;9.85;;;;;;;26.39;46.90;101073.27;2247005;78;52572;-73
2023/09/10 07:03:31;;;;;;;10.85;9.75;;;;;;;26.39;46.88;101075.45;2246724;78;51431;-74
2023/09/10 07:06:34;;;;;;;10.78;9.68;;;;;;;26.42;46.80;101076.89;2267812;78;50278;-72
2023/09/10 07:09:36;;;;;;;10.40;9.30;;;;;;;26.42;46.78;101075.00;2271752;78;51733;-74
2023/09/10 07:12:38;;;;;;;10.80;9.70;;;;;;;26.43;46.71;101077.17;2267523;78;51472;-73
2023/09/10 07:15:40;;;;;;;10.90;9.80;;;;;;;26.44;46.71;101081.03;2245482;78;51430;-73
2023/09/10 07:18:43;;;;;;;11.25;10.05;;;;;;;26.44;46.64;101086.99;2209797;78;51456;-73
2023/09/10 07:21:45;;;;;;;11.33;10.03;;;;;;;26.42;46.63;101084.50;2188008;79;51538;-73
2023/09/10 07:24:47;;;;;;;10.68;9.58;;;;;;;26.46;46.57;101091.64;2228712;79;50731;-72
2023/09/10 07:27:49;;;;;;;12.30;9.85;;;;;;;26.46;46.55;101091.14;2228971;79;50216;-73
2023/09/10 07:30:51;;;;;;;10.85;9.68;;;;;;;26.48;46.48;101092.25;2240268;79;50731;-73
2023/09/10 07:33:54;;;;;;;10.70;9.60;;;;;;;26.49;46.43;101092.58;2186662;79;52594;-73
2023/09/10 07:36:56;;;;;;;11.18;10.08;;;;;;;26.47;46.47;101091.97;2215716;79;51402;-73
2023/09/10 07:39:58;;;;;;;10.90;9.80;;;;;;;26.47;46.43;101094.68;2240310;79;51465;-73
2023/09/10 07:43:02;;;;;;;11.55;10.35;;;;;;;26.47;46.40;101093.33;2204696;79;50440;-73
2023/09/10 07:46:04;;;;;;;11.00;9.88;;;;;;;26.48;46.37;101096.33;2240207;79;51646;-72
2023/09/10 07:49:06;;;;;;;11.45;10.30;;;;;;;26.48;46.35;101097.15;2197816;79;52349;-73
2023/09/10 07:52:09;;;;;;;10.48;9.48;;;;;;;26.48;46.36;101099.04;2243982;78;50413;-76
2023/09/10 07:55:11;;;;;;;10.55;9.40;;;;;;;26.47;46.32;101096.86;2228815;78;51429;-73
2023/09/10 07:58:13;;;;;;;10.78;9.68;;;;;;;26.50;46.26;101096.94;2228874;79;50301;-73
2023/09/10 08:01:15;;;;;;;10.98;9.43;;;;;;;26.50;46.23;101106.44;2240207;79;50353;-74
2023/09/10 08:04:17;;;;;;;10.15;8.98;;;;;;;26.48;46.26;101104.47;2240505;78;50637;-72
2023/09/10 08:07:20;;;;;;;10.13;9.00;;;;;;;26.47;46.27;101109.07;2260711;78;51554;-73
2023/09/10 08:10:22;;;;;;;10.75;9.65;;;;;;;26.48;46.27;101105.83;2264857;78;51387;-73
2023/09/10 08:13:24;;;;;;;10.58;9.48;;;;;;;26.46;46.32;101095.72;2224277;78;51387;-73
2023/09/10 08:16:26;;;;;;;11.12;9.60;;;;;;;26.48;46.21;101096.33;2224701;78;51415;-73
2023/09/10 08:19:29;;;;;;;10.15;9.15;;;;;;;26.45;46.25;101097.61;2240112;78;51473;-74
2023/09/10 08:22:31;;;;;;;9.70;8.80;;;;;;;26.46;46.26;101093.00;2210245;78;52334;-73
2023/09/10 08:25:33;;;;;;;10.43;9.33;;;;;;;26.45;46.24;101094.89;2239813;78;50347;-73
2023/09/10 08:28:35;;;;;;;10.50;9.40;;;;;;;26.45;46.24;101094.89;2224532;78;50335;-73
2023/09/10 08:31:37;;;;;;;15.98;9.90;;;;;;;26.46;46.24;101097.92;2240120;78;50659;-73
2023/09/10 08:34:40;;;;;;;9.78;8.63;;;;;;;26.46;46.24;101103.86;2260480;78;50703;-72
2023/09/10 08:37:42;;;;;;;9.90;8.90;;;;;;;26.44;46.23;101095.96;2239662;78;52380;-72
2023/09/10 08:41:02;;;;;;;10.13;9.13;;;;;;;26.42;46.29;101097.23;2224588;78;51517;-73
2023/09/10 08:44:04;;;;;;;10.15;9.18;;;;;;;26.41;46.33;101100.98;2260507;78;51438;-72
2023/09/10 08:47:07;;;;;;;9.68;8.75;;;;;;;26.39;46.37;101090.91;2239819;78;52392;-73
2023/09/10 08:50:11;;;;;;;10.20;9.13;;;;;;;26.38;46.36;101087.34;2258511;78;51562;-73
2023/09/10 08:53:14;;;;;;;10.18;9.05;;;;;;;26.40;46.37;101087.95;2263862;77;50187;-73
2023/09/10 08:56:16;;;;;;;9.90;8.90;;;;;;;26.37;46.40;101086.23;2278751;78;50439;-74
2023/09/10 08:59:19;;;;;;;9.50;8.60;;;;;;;26.37;46.43;101088.94;2278559;78;50197;-73
2023/09/10 09:02:21;;;;;;;10.28;9.28;;;;;;;26.36;46.45;101087.27;2273117;77;52766;-73
2023/09/10 09:05:23;;;;;;;9.78;8.88;;;;;;;26.36;46.44;101089.47;2246812;77;50097;-73
2023/09/10 09:08:30;;;;;;;10.08;9.00;;;;;;;26.34;46.51;101089.40;2278811;78;51569;-73
2023/09/10 09:11:35;;;;;;;10.00;8.88;;;;;;;26.34;46.50;101088.04;2248143;78;51796;-74
2023/09/10 09:14:42;;;;;;;10.33;9.30;;;;;;;26.32;46.53;101092.86;2278718;78;50410;-74
2023/09/10 09:17:41;;;;;;;9.60;8.60;;;;;;;26.29;46.58;101084.10;2278904;77;22279;-73
2023/09/10 09:20:45;;;;;;;9.50;8.58;;;;;;;26.29;46.60;101080.03;2243831;78;51389;-73
2023/09/10 09:23:54;;;;;;;9.63;8.73;;;;;;;26.29;46.63;101085.99;2254255;78;50300;-74
2023/09/10 09:26:56;;;;;;;10.13;8.38;;;;;;;26.30;46.61;101086.28;2239803;78;51871;-74
2023/09/10 09:29:59;;;;;;;10.95;8.93;;;;;;;26.26;46.64;101079.66;2260629;78;51377;-74
2023/09/10 09:33:01;;;;;;;9.50;8.60;;;;;;;26.26;46.75;101085.91;2239773;78;50131;-73
2023/09/10 09:36:10;;;;;;;10.23;9.13;;;;;;;26.26;46.72;101080.48;2239622;78;51122;-74
2023/09/10 09:39:17;;;;;;;9.43;8.53;;;;;;;26.25;46.77;101078.81;2260647;78;50268;-73
2023/09/10 09:42:21;;;;;;;9.43;8.58;;;;;;;26.25;46.79;101081.52;2260378;78;50515;-74
2023/09/10 09:45:24;;;;;;;9.00;8.10;;;;;;;26.24;46.79;101081.77;2240166;78;49987;-74
2023/09/10 09:48:26;;;;;;;9.78;8.83;;;;;;;26.23;46.84;101079.58;2240080;78;51670;-74
2023/09/10 09:51:29;;;;;;;10.98;8.65;;;;;;;26.24;46.84;101083.12;2240382;78;52357;-75
2023/09/10 09:54:31;;;;;;;9.43;8.53;;;;;;;26.24;46.87;101084.48;2198529;78;51473;-75
2023/09/10 09:57:38;;;;;;;9.73;8.73;;;;;;;26.23;46.93;101082.80;2219209;78;51385;-74
2023/09/10 10:00:40;;;;;;;9.33;8.43;;;;;;;26.22;46.94;101076.55;2264575;78;49608;-74
2023/09/10 10:03:42;;;;;;;9.48;8.48;;;;;;;26.21;46.97;101071.37;2239572;78;50720;-72
2023/09/10 10:06:45;;;;;;;9.25;8.28;;;;;;;26.20;47.01;101078.68;2260600;78;51362;-73
2023/09/10 10:09:47;;;;;;;9.58;8.60;;;;;;;26.19;47.03;101074.29;2264831;78;51221;-74
2023/09/10 10:12:49;;;;;;;9.38;8.48;;;;;;;26.19;47.04;101074.29;2260492;78;50775;-74
2023/09/10 10:15:53;;;;;;;9.30;8.18;;;;;;;26.18;47.05;101076.72;2260875;78;50385;-73
2023/09/10 10:18:55;;;;;;;9.20;7.85;;;;;;;26.19;47.05;101072.94;2195718;78;51247;-73
2023/09/10 10:21:58;;;;;;;9.35;8.35;;;;;;;26.18;47.06;101065.86;2255092;78;50288;-73
2023/09/10 10:25:00;;;;;;;8.58;7.78;;;;;;;26.20;47.09;101061.55;2273192;77;50656;-73
2023/09/10 10:28:03;;;;;;;8.63;7.72;;;;;;;26.17;47.11;101063.36;2278985;77;51563;-72
2023/09/10 10:31:15;;;;;;;9.20;8.30;;;;;;;26.17;47.15;101057.94;2278762;78;50400;-74
2023/09/10 10:34:20;;;;;;;8.83;7.92;;;;;;;26.16;47.14;101058.47;2248043;78;50081;-74
2023/09/10 10:37:34;;;;;;;9.07;8.17;;;;;;;26.15;47.16;101056.83;2278687;77;50648;-74
2023/09/10 10:40:38;;;;;;;9.13;8.23;;;;;;;26.16;47.18;101057.65;2274282;78;51604;-73
2023/09/10 10:43:56;;;;;;;8.80;7.90;;;;;;;26.16;47.10;101057.12;2273150;77;52438;-73
2023/09/10 10:47:00;;;;;;;8.35;7.55;;;;;;;26.14;47.17;101051.61;2246232;78;50816;-73
2023/09/10 10:50:02;;;;;;;8.70;7.90;;;;;;;26.14;47.19;101053.79;2273083;77;50404;-73
2023/09/10 10:53:14;;;;;;;8.70;7.90;;;;;;;26.15;47.17;101051.40;2278659;78;51526;-74
2023/09/10 10:56:16;;;;;;;9.38;8.48;;;;;;;26.16;47.16;101050.34;2277922;77;51463;-73
2023/09/10 10:59:18;;;;;;;9.03;7.85;;;;;;;26.15;47.16;101048.69;2248381;78;52435;-74
2023/09/10 11:02:24;;;;;;;7.95;7.25;;;;;;;26.15;47.17;101051.40;2278572;78;51411;-73
2023/09/10 11:05:26;;;;;;;8.45;7.65;;;;;;;26.15;47.16;101047.33;2248779;78;50460;-74
2023/09/10 11:08:29;;;;;;;8.05;7.35;;;;;;;26.16;47.14;101050.34;2276059;77;49299;-73
2023/09/10 11:11:41;;;;;;;8.90;8.00;;;;;;;26.17;47.13;101043.84;2281864;78;51472;-72
2023/09/10 11:15:03;;;;;;;8.53;7.72;;;;;;;26.15;47.13;101048.69;2281466;78;50677;-73
2023/09/10 11:18:37;;;;;;;8.55;7.72;;;;;;;26.14;47.16;101038.88;2248466;78;50689;-73
2023/09/10 11:21:58;;;;;;;9.53;8.48;;;;;;;26.15;47.11;101044.62;2244534;79;50277;-74
2023/09/10 11:25:06;;;;;;;8.53;7.72;;;;;;;26.14;47.11;101045.66;2222135;79;50812;-74
2023/09/10 11:28:47;;;;;;;8.50;7.37;;;;;;;26.13;47.14;101045.36;2223698;79;51381;-74
2023/09/10 11:31:51;;;;;;;8.50;7.60;;;;;;;26.15;47.09;101045.98;2246452;78;50786;-74
2023/09/10 11:34:53;;;;;;;8.20;7.40;;;;;;;26.18;47.03;101044.70;2246005;79;50683;-74
2023/09/10 11:37:56;;;;;;;9.30;7.90;;;;;;;26.16;46.97;101044.91;2220148;79;51425;-75
2023/09/10 11:40:58;;;;;;;8.38;7.58;;;;;;;26.15;47.06;101042.41;2246150;79;51818;-74
2023/09/10 11:44:01;;;;;;;8.00;7.20;;;;;;;26.13;47.09;101041.30;2220128;79;50296;-74
2023/09/10 11:47:04;;;;;;;8.33;7.42;;;;;;;26.13;47.12;101039.94;2220117;79;51633;-74
2023/09/10 11:50:07;;;;;;;8.58;7.72;;;;;;;26.11;47.11;101033.91;2152095;80;49638;-74
2023/09/10 11:53:09;;;;;;;8.48;7.58;;;;;;;26.14;47.09;101033.98;2153703;80;50469;-74
2023/09/10 11:56:12;;;;;;;9.15;7.30;;;;;;;26.12;47.15;101031.48;2223903;80;50811;-74
2023/09/10 11:59:17;;;;;;;7.92;7.12;;;;;;;26.11;47.09;101018.98;2223785;79;51576;-74
2023/09/10 12:02:21;;;;;;;7.90;7.10;;;;;;;26.12;47.07;101022.52;2223497;80;51586;-74
2023/09/10 12:05:24;;;;;;;7.87;7.05;;;;;;;26.12;47.12;101020.63;2223873;79;51506;-74
2023/09/10 12:08:27;;;;;;;7.47;6.78;;;;;;;26.13;47.06;101022.84;2180685;80;50683;-74
2023/09/10 12:11:29;;;;;;;7.20;6.50;;;;;;;26.12;47.12;101021.98;2227805;79;49988;-73
2023/09/10 12:14:31;;;;;;;8.40;7.58;;;;;;;26.13;47.10;101019.59;2223773;80;50645;-74
2023/09/10 12:17:33;;;;;;;7.60;6.90;;;;;;;26.14;47.09;101017.17;2240119;77;51635;-74
2023/09/10 12:20:35;;;;;;;7.45;6.75;;;;;;;26.14;47.05;101018.53;2274953;78;51471;-75
2023/09/10 12:23:38;;;;;;;8.30;7.00;;;;;;;26.14;47.11;101024.48;2276403;78;52577;-73
2023/09/10 12:26:40;;;;;;;6.85;6.25;;;;;;;26.15;47.08;101021.56;2282176;78;51495;-74
2023/09/10 12:29:42;;;;;;;7.72;6.92;;;;;;;26.16;47.10;101013.72;2282135;78;51449;-74
2023/09/10 12:32:44;;;;;;;8.13;6.92;;;;;;;26.16;47.14;101015.08;2282461;76;51561;-75
2023/09/10 12:35:47;;;;;;;8.70;6.35;;;;;;;26.18;47.10;101015.69;2285361;78;51371;-74
2023/09/10 12:38:49;;;;;;;7.30;6.28;;;;;;;26.26;46.93;101008.60;2277057;77;51658;-74
2023/09/10 12:42:01;;;;;;;7.65;6.87;;;;;;;26.25;46.91;101008.28;2250652;78;51434;-75
2023/09/10 12:45:00;;;;;;;8.00;6.65;;;;;;;26.25;46.92;101010.17;2282556;77;22272;-74
2023/09/10 12:48:03;;;;;;;7.47;6.78;;;;;;;26.24;46.91;101003.09;2249520;78;51585;-75
2023/09/10 12:51:05;;;;;;;8.93;7.03;;;;;;;26.21;46.98;101015.23;2279882;78;50711;-74
2023/09/10 12:54:08;;;;;;;7.50;6.70;;;;;;;26.20;47.01;101014.08;2283820;77;50621;-74
2023/09/10 12:57:11;;;;;;;7.17;6.47;;;;;;;26.20;47.03;101027.14;2283428;76;50734;-74
2023/09/10 13:00:14;;;;;;;7.50;6.28;;;;;;;26.21;47.04;101013.88;2252681;78;51784;-74
2023/09/10 13:03:16;;;;;;;7.08;6.37;;;;;;;26.20;47.08;101010.88;2203732;78;51679;-74
2023/09/10 13:06:19;;;;;;;7.08;6.47;;;;;;;26.23;47.05;100998.70;2283961;77;51470;-73
2023/09/10 13:09:21;;;;;;;7.35;6.65;;;;;;;26.23;47.05;101004.98;2282794;78;50665;-74
2023/09/10 13:12:23;;;;;;;7.35;6.65;;;;;;;26.24;47.00;101003.92;2276042;77;52477;-74
2023/09/10 13:15:25;;;;;;;7.10;6.40;;;;;;;26.27;46.95;101008.89;2281630;77;51422;-74
2023/09/10 13:18:27;;;;;;;6.70;6.05;;;;;;;26.27;46.99;101003.46;2243175;78;51413;-73
2023/09/10 13:21:30;;;;;;;7.15;6.45;;;;;;;26.27;46.95;101008.06;2245717;78;50260;-74
2023/09/10 13:24:32;;;;;;;7.17;6.12;;;;;;;26.28;46.95;101003.78;2218646;79;51556;-73
2023/09/10 13:27:34;;;;;;;6.90;6.20;;;;;;;26.28;46.95;101004.28;2218758;79;51158;-74
2023/09/10 13:30:39;;;;;;;6.72;6.03;;;;;;;26.29;46.93;100997.29;2195127;79;49960;-72
2023/09/10 13:33:41;;;;;;;6.78;6.10;;;;;;;26.29;46.97;100993.22;2196846;78;51580;-73
2023/09/10 13:36:43;;;;;;;9.70;6.72;;;;;;;26.30;46.97;100996.76;2185803;79;50369;-73
2023/09/10 13:39:46;;;;;;;7.47;5.95;;;;;;;26.33;46.98;100994.94;2208009;79;50107;-73
2023/09/10 13:42:49;;;;;;;8.33;6.33;;;;;;;26.33;47.24;100988.69;2192113;78;51654;-72
2023/09/10 13:45:51;;;;;;;8.93;5.72;;;;;;;26.34;47.25;100997.16;2214393;79;50823;-73
2023/09/10 13:48:54;;;;;;;9.68;6.37;;;;;;;26.36;47.29;100999.94;2237823;78;51420;-73
2023/09/10 13:51:56;;;;;;;8.73;6.10;;;;;;;26.36;47.38;100996.37;2241580;78;51660;-74
2023/09/10 13:54:58;;;;;;;10.20;6.22;;;;;;;26.36;47.44;100995.02;2256411;78;51483;-75
2023/09/10 13:58:00;;;;;;;14.85;6.42;;;;;;;26.37;47.53;100991.27;2256823;78;51439;-75
2023/09/10 14:01:07;;;;;;;10.38;6.42;;;;;;;26.36;47.71;100995.02;2231814;78;52382;-76
2023/09/10 14:04:07;;;;;;;9.80;6.70;;;;;;;26.40;47.42;100998.41;2280897;78;22394;-75
2023/09/10 14:07:09;;;;;;;7.72;5.47;;;;;;;26.56;41.99;100990.20;2257504;78;51478;-76